Airfield :
LOGIN :

Register | Disclaimer

   EN    FR    IT 

 










Legend :    VFR   Marginal VFR   IFR   Intensive IFR   Very Intensive IFR
Visi :
Ceiling :
>= 8 km
>= 3000ft
5 to 8 km
1000 to 3000 ft
1500m to 5 km
500 to 1000 ft
800 to 1500m
200 to 500 ft
< 800m
< 200 ft
Symbols :   Thunderstorms  Fog  Heavy snow  Heavy precipitations  Wind > 20 kt
SIGMETs :     Misc.  Thunderstorms  Icing  Turbulence  Mountain Waves  Volcanic Ashes







- Airport Elevation : 913 ft
- Download approach charts


LFSX - Luxeuil

CURRENT METAR :
  • 112100Z AUTO 00000KT CAVOK M02/M03 Q1023 TEMPO 2000 BR

EXPIRED METARs :
  • 112030Z AUTO VRB02KT CAVOK M01/M02 Q1023 TEMPO 2000 BR
  • 112000Z AUTO 00000KT 9999 FEW048 M01/M02 Q1023 NOSIG
  • 111930Z AUTO 22002KT CAVOK M01/M02 Q1024 NOSIG
  • 111900Z AUTO 21004KT CAVOK M01/M03 Q1024 NOSIG
  • 111830Z AUTO 01003KT 330V030 CAVOK 01/M02 Q1023 NOSIG

TAF TAF LFSX
Valid from the 11 at 21:00 until the 12 at 21:00 UTC


112000Z 1121/1221 VRB05KT CAVOK
TEMPO 1122/1203 2000 BR
No reported NOTAMs for that airfield.



MET'MAP, your aeronautical weather chart ! - Copyright ORBIFLY December 2007 - Disclaimer

ORBIFLY MET'MAP TEAM :

Programming & Development : Alexandra Zaïnal
Concept & Development : Baudouin d'Aumeries
Co-Development & Prog : Marc-Olivier Méhu
Technical & hardware support : Manuel Goepfert

Contact : metmap@orbifly.com




SOURCES & CREDITS :

   NOAA